createdAt,value
2017-07-20T00:00:17.239Z,20.05
2017-07-20T00:01:18.479Z,20.05
2017-07-20T00:02:19.805Z,20.02
2017-07-20T00:03:21.047Z,20.03
2017-07-20T00:04:22.284Z,19.93
2017-07-20T00:05:23.537Z,20
2017-07-20T00:06:24.792Z,20.03
2017-07-20T00:07:26.080Z,20.06
2017-07-20T00:08:27.351Z,20.03
2017-07-20T00:09:28.590Z,20.03
2017-07-20T00:10:29.827Z,20.05
2017-07-20T00:11:31.162Z,20.05
2017-07-20T00:12:32.405Z,20.05
2017-07-20T00:13:33.684Z,20.05
2017-07-20T00:14:34.955Z,20.02
2017-07-20T00:15:36.344Z,20
2017-07-20T00:16:37.491Z,20
2017-07-20T00:17:38.742Z,19.95
2017-07-20T00:18:39.989Z,20.02
2017-07-20T00:19:41.230Z,20
2017-07-20T00:20:42.471Z,19.94
2017-07-20T00:21:43.703Z,19.95
2017-07-20T00:22:44.941Z,19.94
2017-07-20T00:23:46.172Z,20
2017-07-20T00:24:47.435Z,19.91
2017-07-20T00:25:48.738Z,19.9
2017-07-20T00:26:49.977Z,19.94
2017-07-20T00:27:51.220Z,19.91
2017-07-20T00:28:52.459Z,19.88
2017-07-20T00:29:53.712Z,19.93
2017-07-20T00:30:54.967Z,19.94
2017-07-20T00:31:56.205Z,19.83
2017-07-20T00:32:57.451Z,19.86
2017-07-20T00:33:58.705Z,19.87
2017-07-20T00:34:59.954Z,19.78
2017-07-20T00:36:01.209Z,19.86
2017-07-20T00:37:02.444Z,19.75
2017-07-20T00:38:03.693Z,19.73
2017-07-20T00:39:04.932Z,19.83
2017-07-20T00:40:06.180Z,19.8
2017-07-20T00:41:07.519Z,19.86
2017-07-20T00:42:08.749Z,19.83
2017-07-20T00:43:09.988Z,19.79
2017-07-20T00:44:11.229Z,19.8
2017-07-20T00:45:12.479Z,19.8
2017-07-20T00:46:13.715Z,19.86
2017-07-20T00:47:14.952Z,19.78
2017-07-20T00:48:16.272Z,19.83
2017-07-20T00:49:17.467Z,19.78
2017-07-20T00:50:18.692Z,19.78
2017-07-20T00:51:19.962Z,19.78
2017-07-20T00:52:21.235Z,19.86
2017-07-20T00:53:22.476Z,19.79
2017-07-20T00:54:23.769Z,19.87
2017-07-20T00:55:25.005Z,19.83
2017-07-20T00:56:26.241Z,19.9
2017-07-20T00:57:27.564Z,19.94
2017-07-20T00:58:28.803Z,19.91
2017-07-20T00:59:30.044Z,19.9
2017-07-20T01:00:31.281Z,19.93
2017-07-20T01:01:32.541Z,19.93
2017-07-20T01:02:33.777Z,19.98
2017-07-20T01:03:35.015Z,19.94
2017-07-20T01:04:36.255Z,19.98
2017-07-20T01:05:37.514Z,19.95
2017-07-20T01:06:38.834Z,20
2017-07-20T01:07:40.055Z,19.93
2017-07-20T01:08:41.304Z,19.8
2017-07-20T01:09:42.550Z,19.58
2017-07-20T01:10:43.822Z,19.54
2017-07-20T01:11:45.159Z,19.57
2017-07-20T01:12:46.410Z,19.46
2017-07-20T01:13:47.658Z,19.38
2017-07-20T01:14:48.894Z,19.33
2017-07-20T01:15:50.142Z,19.25
2017-07-20T01:16:51.392Z,19.18
2017-07-20T01:17:52.733Z,19.29
2017-07-20T01:18:53.987Z,19.29
2017-07-20T01:19:55.227Z,19.2
2017-07-20T01:20:56.478Z,19.23
2017-07-20T01:21:57.719Z,19.29
2017-07-20T01:22:59.014Z,19.2
2017-07-20T01:24:00.259Z,19.25
2017-07-20T01:25:01.554Z,19.21
2017-07-20T01:26:02.795Z,19.13
2017-07-20T01:27:04.032Z,19.13
2017-07-20T01:28:05.275Z,19.13
2017-07-20T01:29:06.520Z,19.11
2017-07-20T01:30:07.823Z,19.14
2017-07-20T01:31:09.090Z,19.17
2017-07-20T01:32:10.331Z,19.13
2017-07-20T01:33:11.569Z,19.08
2017-07-20T01:34:12.805Z,19.06
2017-07-20T01:35:14.082Z,19.17
2017-07-20T01:36:15.322Z,19.15
2017-07-20T01:37:16.559Z,19.1
2017-07-20T01:38:17.804Z,18.99
2017-07-20T01:39:19.060Z,19.05
2017-07-20T01:40:20.318Z,19.05
2017-07-20T01:41:21.538Z,18.98
2017-07-20T01:42:22.769Z,18.97
2017-07-20T01:43:24.056Z,19.1
2017-07-20T01:44:25.306Z,19.13
2017-07-20T01:45:26.551Z,19.05
2017-07-20T01:46:27.984Z,19.02
2017-07-20T01:47:29.353Z,19.11
2017-07-20T01:48:30.594Z,19.13
2017-07-20T01:49:31.872Z,19.14
2017-07-20T01:50:33.078Z,19.11
2017-07-20T01:51:34.389Z,19.1
2017-07-20T01:52:35.548Z,19.13
2017-07-20T01:53:36.783Z,19.1
2017-07-20T01:54:38.026Z,19.13
2017-07-20T01:55:39.287Z,19.14
2017-07-20T01:56:40.522Z,19.01
2017-07-20T01:57:41.771Z,19.01
2017-07-20T01:58:43.019Z,18.91
2017-07-20T01:59:44.261Z,18.92
2017-07-20T02:00:45.540Z,18.97
2017-07-20T02:01:46.903Z,18.9
2017-07-20T02:02:48.136Z,18.84
2017-07-20T02:03:49.392Z,18.94
2017-07-20T02:04:50.622Z,18.91
2017-07-20T02:05:51.861Z,18.91
2017-07-20T02:06:53.103Z,18.91
2017-07-20T02:07:54.347Z,18.9
2017-07-20T02:08:55.574Z,18.86
2017-07-20T02:09:56.897Z,18.84
2017-07-20T02:10:58.130Z,18.83
2017-07-20T02:11:59.447Z,18.91
2017-07-20T02:13:00.676Z,18.8
2017-07-20T02:14:01.921Z,18.94
2017-07-20T02:15:03.201Z,18.94
2017-07-20T02:16:04.414Z,18.9
2017-07-20T02:17:05.711Z,18.99
2017-07-20T02:18:06.955Z,19.01
2017-07-20T02:19:08.193Z,19.06
2017-07-20T02:20:09.430Z,18.95
2017-07-20T02:21:10.679Z,18.92
2017-07-20T02:22:11.903Z,19.05
2017-07-20T02:23:13.157Z,18.97
2017-07-20T02:24:14.510Z,19.13
2017-07-20T02:25:15.745Z,18.98
2017-07-20T02:26:16.992Z,19.02
2017-07-20T02:27:18.225Z,19.13
2017-07-20T02:28:19.570Z,19.08
2017-07-20T02:29:20.817Z,19.08
2017-07-20T02:30:22.052Z,19.08
2017-07-20T02:31:23.297Z,19.08
2017-07-20T02:32:24.534Z,19.15
2017-07-20T02:33:25.767Z,19.01
2017-07-20T02:34:27.160Z,18.94
2017-07-20T02:35:28.332Z,18.94
2017-07-20T02:36:29.674Z,18.86
2017-07-20T02:37:30.905Z,18.91
2017-07-20T02:38:32.149Z,18.84
2017-07-20T02:39:33.388Z,18.91
2017-07-20T02:40:34.630Z,18.9
2017-07-20T02:41:35.969Z,18.97
2017-07-20T02:42:37.287Z,18.91
2017-07-20T02:43:38.535Z,18.97
2017-07-20T02:44:39.777Z,18.83
2017-07-20T02:45:41.085Z,18.84
2017-07-20T02:46:42.326Z,18.79
2017-07-20T02:47:43.563Z,18.77
2017-07-20T02:48:44.802Z,18.79
2017-07-20T02:49:46.044Z,18.8
2017-07-20T02:50:47.409Z,18.83
2017-07-20T02:51:48.762Z,18.72
2017-07-20T02:52:50.182Z,18.76
2017-07-20T02:53:51.415Z,18.79
2017-07-20T02:54:52.658Z,18.73
2017-07-20T02:55:53.903Z,18.68
2017-07-20T02:56:55.364Z,18.77
2017-07-20T02:57:56.605Z,18.79
2017-07-20T02:58:57.846Z,18.7
2017-07-20T02:59:59.104Z,18.64
2017-07-20T03:01:00.363Z,18.68
2017-07-20T03:02:01.591Z,18.72
2017-07-20T03:03:02.819Z,18.8
2017-07-20T03:04:04.069Z,18.68
2017-07-20T03:05:05.307Z,18.62
2017-07-20T03:06:06.544Z,18.64
2017-07-20T03:07:07.792Z,18.73
2017-07-20T03:08:09.033Z,18.68
2017-07-20T03:09:10.275Z,18.65
2017-07-20T03:10:11.539Z,18.64
2017-07-20T03:11:12.819Z,18.68
2017-07-20T03:12:14.108Z,18.68
2017-07-20T03:13:15.347Z,18.68
2017-07-20T03:14:16.589Z,18.68
2017-07-20T03:15:17.848Z,18.7
2017-07-20T03:16:19.080Z,18.7
2017-07-20T03:17:20.315Z,18.68
2017-07-20T03:18:21.672Z,18.76
2017-07-20T03:19:22.941Z,18.65
2017-07-20T03:20:24.170Z,18.68
2017-07-20T03:21:25.441Z,18.73
2017-07-20T03:22:26.680Z,18.65
2017-07-20T03:23:27.977Z,18.72
2017-07-20T03:24:29.241Z,18.68
2017-07-20T03:25:30.467Z,18.68
2017-07-20T03:26:31.708Z,18.67
2017-07-20T03:27:32.943Z,18.73
2017-07-20T03:28:34.184Z,18.72
2017-07-20T03:29:35.514Z,18.65
2017-07-20T03:30:36.800Z,18.65
2017-07-20T03:31:38.039Z,18.62
2017-07-20T03:32:39.271Z,18.74
2017-07-20T03:33:40.517Z,18.65
2017-07-20T03:34:41.745Z,18.74
2017-07-20T03:35:43.067Z,18.79
2017-07-20T03:36:44.319Z,18.73
2017-07-20T03:37:45.567Z,18.77
2017-07-20T03:38:46.806Z,18.72
2017-07-20T03:39:48.046Z,18.72
2017-07-20T03:40:49.280Z,18.7
2017-07-20T03:41:50.521Z,18.7
2017-07-20T03:42:51.758Z,18.64
2017-07-20T03:43:53.135Z,18.65
2017-07-20T03:44:54.369Z,18.8
2017-07-20T03:45:55.615Z,18.65
2017-07-20T03:46:56.856Z,18.68
2017-07-20T03:47:58.094Z,18.58
2017-07-20T03:48:59.342Z,18.65
2017-07-20T03:50:00.664Z,18.68
2017-07-20T03:51:01.910Z,18.68
2017-07-20T03:52:03.152Z,18.77
2017-07-20T03:53:04.384Z,18.7
2017-07-20T03:54:05.647Z,18.65
2017-07-20T03:55:06.957Z,18.79
2017-07-20T03:56:08.195Z,18.79
2017-07-20T03:57:09.445Z,18.73
2017-07-20T03:58:10.734Z,18.76
2017-07-20T03:59:11.977Z,18.79
2017-07-20T04:00:13.204Z,18.77
2017-07-20T04:01:14.439Z,18.73
2017-07-20T04:02:15.704Z,18.76
2017-07-20T04:03:17.101Z,18.77
2017-07-20T04:04:18.523Z,18.79
2017-07-20T04:05:19.650Z,18.77
2017-07-20T04:06:20.886Z,18.76
2017-07-20T04:07:22.130Z,18.82
2017-07-20T04:08:23.420Z,18.79
2017-07-20T04:09:24.665Z,18.84
2017-07-20T04:10:25.900Z,18.79
2017-07-20T04:11:27.141Z,18.84
2017-07-20T04:12:28.380Z,18.83
2017-07-20T04:13:29.619Z,18.9
2017-07-20T04:14:30.926Z,18.91
2017-07-20T04:15:32.164Z,18.87
2017-07-20T04:16:33.464Z,18.95
2017-07-20T04:17:34.706Z,18.94
2017-07-20T04:18:35.943Z,18.9
2017-07-20T04:19:37.226Z,18.95
2017-07-20T04:20:38.467Z,19.01
2017-07-20T04:21:39.712Z,18.97
2017-07-20T04:22:41.102Z,19.02
2017-07-20T04:23:42.332Z,19.01
2017-07-20T04:24:43.549Z,19.05
2017-07-20T04:25:44.793Z,19.1
2017-07-20T04:26:46.080Z,19.05
2017-07-20T04:27:47.380Z,19.02
2017-07-20T04:28:48.615Z,18.99
2017-07-20T04:29:49.854Z,18.99
2017-07-20T04:30:51.096Z,19.13
2017-07-20T04:31:52.324Z,19.02
2017-07-20T04:32:53.570Z,18.99
2017-07-20T04:33:54.811Z,19.1
2017-07-20T04:34:56.053Z,19.08
2017-07-20T04:35:57.303Z,19.01
2017-07-20T04:36:58.553Z,19.01
2017-07-20T04:37:59.774Z,19.08
2017-07-20T04:39:01.050Z,19.08
2017-07-20T04:40:02.280Z,19.01
2017-07-20T04:41:03.503Z,19.14
2017-07-20T04:42:04.740Z,19.1
2017-07-20T04:43:06.003Z,19.1
2017-07-20T04:44:07.245Z,19.15
2017-07-20T04:45:08.488Z,19.14
2017-07-20T04:46:09.738Z,19.1
2017-07-20T04:47:11.011Z,19.14
2017-07-20T04:48:12.259Z,19.14
2017-07-20T04:49:13.526Z,19.18
2017-07-20T04:50:14.773Z,19.21
2017-07-20T04:51:16.012Z,19.2
2017-07-20T04:52:17.279Z,19.21
2017-07-20T04:53:18.514Z,19.11
2017-07-20T04:54:19.868Z,19.2
2017-07-20T04:55:21.110Z,19.13
2017-07-20T04:56:22.418Z,19.21
2017-07-20T04:57:23.607Z,19.13
2017-07-20T04:58:24.851Z,19.15
2017-07-20T04:59:26.123Z,19.1
2017-07-20T05:00:27.447Z,19.13
2017-07-20T05:01:28.731Z,19.1
2017-07-20T05:02:29.961Z,19.13
2017-07-20T05:03:31.194Z,19.17
2017-07-20T05:04:32.433Z,19.21
2017-07-20T05:05:33.694Z,19.21
2017-07-20T05:06:34.929Z,19.24
2017-07-20T05:07:36.172Z,19.21
2017-07-20T05:08:37.427Z,19.21
2017-07-20T05:09:38.670Z,19.13
2017-07-20T05:10:39.910Z,19.11
2017-07-20T05:11:41.290Z,19.1
2017-07-20T05:12:42.611Z,19.28
2017-07-20T05:13:43.841Z,19.14
2017-07-20T05:14:45.080Z,19.15
2017-07-20T05:15:46.322Z,19.18
2017-07-20T05:16:47.569Z,19.2
2017-07-20T05:17:48.809Z,19.14
2017-07-20T05:18:50.098Z,19.23
2017-07-20T05:19:51.340Z,19.14
2017-07-20T05:20:52.577Z,19.24
2017-07-20T05:21:53.817Z,19.15
2017-07-20T05:22:55.056Z,19.13
2017-07-20T05:23:56.290Z,19.21
2017-07-20T05:24:57.571Z,19.1
2017-07-20T05:25:58.822Z,19.21
2017-07-20T05:27:00.137Z,19.21
2017-07-20T05:28:01.368Z,19.25
2017-07-20T05:29:02.600Z,19.17
2017-07-20T05:30:03.844Z,19.23
2017-07-20T05:31:05.086Z,19.25
2017-07-20T05:32:06.403Z,19.23
2017-07-20T05:33:07.653Z,19.2
2017-07-20T05:34:08.897Z,19.25
2017-07-20T05:35:10.127Z,19.23
2017-07-20T05:36:11.378Z,19.25
2017-07-20T05:37:12.610Z,19.29
2017-07-20T05:38:13.857Z,19.18
2017-07-20T05:39:15.210Z,19.25
2017-07-20T05:40:16.472Z,19.28
2017-07-20T05:41:17.700Z,19.21
2017-07-20T05:42:18.956Z,19.15
2017-07-20T05:43:20.176Z,19.23
2017-07-20T05:44:21.594Z,19.24
2017-07-20T05:45:22.834Z,19.31
2017-07-20T05:46:24.109Z,19.29
2017-07-20T05:47:25.367Z,19.2
2017-07-20T05:48:26.581Z,19.25
2017-07-20T05:49:27.860Z,19.25
2017-07-20T05:50:29.108Z,19.32
2017-07-20T05:51:30.397Z,19.28
2017-07-20T05:52:31.698Z,19.21
2017-07-20T05:53:32.944Z,19.25
2017-07-20T05:54:34.228Z,19.25
2017-07-20T05:55:35.471Z,19.15
2017-07-20T05:56:36.710Z,19.24
2017-07-20T05:57:37.951Z,19.23
2017-07-20T05:58:39.198Z,19.24
2017-07-20T05:59:40.608Z,19.17
2017-07-20T06:00:42.017Z,19.23
2017-07-20T06:01:43.274Z,19.18
2017-07-20T06:02:44.504Z,19.21
2017-07-20T06:03:45.745Z,19.13
2017-07-20T06:04:46.982Z,19.15
2017-07-20T06:05:48.229Z,19.28
2017-07-20T06:06:49.541Z,19.25
2017-07-20T06:07:50.779Z,19.25
2017-07-20T06:08:52.107Z,19.23
2017-07-20T06:09:53.355Z,19.2
2017-07-20T06:10:54.911Z,19.23
2017-07-20T06:11:56.043Z,19.25
2017-07-20T06:12:57.384Z,19.24
2017-07-20T06:13:58.629Z,19.24
2017-07-20T06:14:59.862Z,19.21
2017-07-20T06:16:01.155Z,19.25
2017-07-20T06:17:02.415Z,19.25
2017-07-20T06:18:03.629Z,19.29
2017-07-20T06:19:04.872Z,19.28
2017-07-20T06:20:06.111Z,19.23
2017-07-20T06:21:07.510Z,19.29
2017-07-20T06:22:08.788Z,19.31
2017-07-20T06:23:10.004Z,19.18
2017-07-20T06:24:11.248Z,19.2
2017-07-20T06:25:12.522Z,19.21
2017-07-20T06:26:13.860Z,19.23
2017-07-20T06:27:15.151Z,19.29
2017-07-20T06:28:16.379Z,19.25
2017-07-20T06:29:17.690Z,19.15
2017-07-20T06:30:18.936Z,19.23
2017-07-20T06:31:20.168Z,19.28
2017-07-20T06:32:21.409Z,19.24
2017-07-20T06:33:22.714Z,19.29
2017-07-20T06:34:24.031Z,19.24
2017-07-20T06:35:25.275Z,19.21
2017-07-20T06:36:26.532Z,19.33
2017-07-20T06:37:27.770Z,19.32
2017-07-20T06:38:29.092Z,19.38
2017-07-20T06:39:30.380Z,19.47
2017-07-20T06:40:31.658Z,19.42
2017-07-20T06:41:32.907Z,19.39
2017-07-20T06:42:34.152Z,19.53
2017-07-20T06:43:35.500Z,19.51
2017-07-20T06:44:36.754Z,19.55
2017-07-20T06:45:37.997Z,19.65
2017-07-20T06:46:39.242Z,19.6
2017-07-20T06:47:40.512Z,19.66
2017-07-20T06:48:41.751Z,19.76
2017-07-20T06:49:42.971Z,19.84
2017-07-20T06:50:44.208Z,19.9
2017-07-20T06:51:45.504Z,19.91
2017-07-20T06:52:46.752Z,20
2017-07-20T06:53:47.984Z,20.08
2017-07-20T06:54:49.233Z,20.13
2017-07-20T06:55:50.483Z,20.25
2017-07-20T06:56:51.743Z,20.43
2017-07-20T06:57:53.013Z,20.61
2017-07-20T06:58:54.470Z,20.65
2017-07-20T06:59:56.560Z,20.74
2017-07-20T07:00:57.806Z,20.98
2017-07-20T07:01:59.153Z,21.13
2017-07-20T07:03:00.364Z,21.24
2017-07-20T07:04:01.623Z,21.36
2017-07-20T07:05:02.862Z,21.46
2017-07-20T07:06:04.092Z,21.5
2017-07-20T07:07:05.339Z,21.56
2017-07-20T07:08:06.580Z,21.78
2017-07-20T07:09:07.831Z,21.76
2017-07-20T07:10:09.064Z,21.74
2017-07-20T07:11:10.299Z,21.91
2017-07-20T07:12:11.600Z,21.81
2017-07-20T07:13:12.841Z,21.74
2017-07-20T07:14:14.081Z,21.78
2017-07-20T07:15:15.341Z,21.75
2017-07-20T07:16:16.704Z,21.74
2017-07-20T07:17:17.832Z,21.9
2017-07-20T07:18:19.076Z,21.92
2017-07-20T07:19:20.320Z,21.98
2017-07-20T07:20:21.564Z,21.98
2017-07-20T07:21:22.874Z,21.99
2017-07-20T07:22:24.102Z,22.07
2017-07-20T07:23:25.347Z,22.07
2017-07-20T07:24:26.580Z,22.07
2017-07-20T07:25:27.839Z,22.22
2017-07-20T07:26:29.123Z,22.19
2017-07-20T07:27:30.363Z,22.34
2017-07-20T07:28:31.611Z,22.47
2017-07-20T07:29:32.859Z,22.43
2017-07-20T07:30:34.121Z,22.49
2017-07-20T07:31:35.359Z,22.35
2017-07-20T07:32:36.606Z,22.44
2017-07-20T07:33:37.887Z,22.46
2017-07-20T07:34:39.157Z,22.47
2017-07-20T07:35:40.403Z,22.46
2017-07-20T07:36:41.702Z,22.29
2017-07-20T07:37:42.946Z,22.16
2017-07-20T07:38:44.198Z,22.01
2017-07-20T07:39:45.566Z,22.06
2017-07-20T07:40:46.802Z,21.99
2017-07-20T07:41:48.062Z,21.91
2017-07-20T07:42:49.305Z,21.9
2017-07-20T07:43:50.544Z,21.75
2017-07-20T07:44:51.747Z,21.66
2017-07-20T07:45:52.992Z,21.63
2017-07-20T07:46:54.281Z,21.66
2017-07-20T07:47:55.576Z,21.72
2017-07-20T07:48:56.831Z,21.95
2017-07-20T07:49:58.061Z,22.13
2017-07-20T07:50:59.345Z,22.19
2017-07-20T07:52:00.580Z,22.25
2017-07-20T07:53:01.833Z,22.35
2017-07-20T07:54:03.228Z,22.57
2017-07-20T07:55:04.581Z,22.77
2017-07-20T07:56:05.799Z,22.86
2017-07-20T07:57:07.147Z,23.02
2017-07-20T07:58:08.387Z,22.94
2017-07-20T07:59:09.651Z,22.92
2017-07-20T08:00:10.932Z,23.07
2017-07-20T08:01:12.167Z,22.96
2017-07-20T08:02:13.410Z,22.9
2017-07-20T08:03:14.658Z,22.82
2017-07-20T08:04:15.930Z,22.78
2017-07-20T08:05:17.190Z,22.74
2017-07-20T08:06:18.427Z,22.69
2017-07-20T08:07:19.717Z,22.57
2017-07-20T08:08:20.958Z,22.49
2017-07-20T08:09:22.194Z,22.49
2017-07-20T08:10:23.436Z,22.34
2017-07-20T08:11:24.681Z,22.22
2017-07-20T08:12:25.946Z,22.19
2017-07-20T08:13:27.202Z,22.13
2017-07-20T08:14:28.460Z,22.06
2017-07-20T08:15:29.694Z,21.95
2017-07-20T08:16:30.938Z,21.91
2017-07-20T08:17:32.262Z,21.81
2017-07-20T08:18:33.514Z,21.81
2017-07-20T08:19:34.768Z,21.85
2017-07-20T08:20:36.003Z,21.83
2017-07-20T08:21:37.253Z,21.78
2017-07-20T08:22:38.500Z,21.74
2017-07-20T08:23:40.001Z,21.72
2017-07-20T08:24:41.255Z,21.76
2017-07-20T08:25:42.509Z,21.79
2017-07-20T08:26:43.752Z,21.91
2017-07-20T08:27:44.992Z,21.98
2017-07-20T08:28:46.233Z,22.02
2017-07-20T08:29:47.516Z,22.12
2017-07-20T08:30:48.757Z,22.19
2017-07-20T08:31:50.066Z,22.27
2017-07-20T08:32:51.299Z,22.29
2017-07-20T08:33:52.548Z,22.23
2017-07-20T08:34:53.799Z,22.34
2017-07-20T08:35:55.056Z,22.34
2017-07-20T08:36:56.304Z,22.5
2017-07-20T08:37:57.591Z,22.54
2017-07-20T08:38:58.881Z,22.59
2017-07-20T08:40:00.117Z,22.75
2017-07-20T08:41:01.379Z,22.93
2017-07-20T08:42:02.632Z,23.02
2017-07-20T08:43:03.867Z,23.01
2017-07-20T08:44:05.207Z,23.05
2017-07-20T08:45:06.411Z,23.11
2017-07-20T08:46:07.658Z,23.19
2017-07-20T08:47:08.897Z,23.26
2017-07-20T08:48:10.155Z,23.12
2017-07-20T08:49:11.382Z,23.19
2017-07-20T08:50:12.627Z,23.2
2017-07-20T08:51:13.912Z,23.12
2017-07-20T08:52:15.153Z,23.15
2017-07-20T08:53:16.390Z,23.22
2017-07-20T08:54:17.698Z,23.15
2017-07-20T08:55:18.978Z,23.2
2017-07-20T08:56:20.274Z,23.32
2017-07-20T08:57:21.525Z,23.49
2017-07-20T08:58:22.769Z,23.55
2017-07-20T08:59:24.005Z,23.6
2017-07-20T09:00:25.251Z,23.61
2017-07-20T09:01:26.494Z,23.7
2017-07-20T09:02:27.742Z,23.83
2017-07-20T09:03:29.034Z,23.83
2017-07-20T09:04:30.280Z,23.89
2017-07-20T09:05:31.530Z,23.89
2017-07-20T09:06:32.775Z,23.92
2017-07-20T09:07:34.043Z,23.98
2017-07-20T09:08:35.269Z,24.02
2017-07-20T09:09:36.505Z,24.19
2017-07-20T09:10:37.751Z,24.1
2017-07-20T09:11:38.995Z,24.24
2017-07-20T09:12:40.241Z,24.24
2017-07-20T09:13:41.511Z,24.12
2017-07-20T09:14:42.733Z,24.24
2017-07-20T09:15:44.022Z,24.22
2017-07-20T09:16:45.299Z,24.24
2017-07-20T09:17:46.555Z,24.35
2017-07-20T09:18:47.787Z,24.44
2017-07-20T09:19:49.028Z,24.47
2017-07-20T09:20:50.268Z,24.44
2017-07-20T09:21:51.535Z,24.53
2017-07-20T09:22:52.770Z,24.64
2017-07-20T09:23:54.071Z,24.61
2017-07-20T09:24:55.320Z,24.8
2017-07-20T09:25:56.565Z,24.76
2017-07-20T09:26:57.818Z,24.73
2017-07-20T09:27:59.089Z,24.64
2017-07-20T09:29:00.384Z,24.64
2017-07-20T09:30:01.650Z,24.71
2017-07-20T09:31:02.892Z,24.82
2017-07-20T09:32:04.135Z,24.82
2017-07-20T09:33:05.376Z,24.98
2017-07-20T09:34:06.633Z,25.06
2017-07-20T09:35:07.885Z,25.09
2017-07-20T09:36:09.187Z,25.46
2017-07-20T09:37:10.436Z,25.83
2017-07-20T09:38:11.791Z,26.4
2017-07-20T09:39:13.028Z,26.77
2017-07-20T09:40:14.299Z,26.95
2017-07-20T09:41:15.559Z,27.16
2017-07-20T09:42:16.796Z,27.14
2017-07-20T09:43:18.044Z,27.33
2017-07-20T09:44:19.318Z,27.77
2017-07-20T09:45:20.549Z,28.46
2017-07-20T09:46:21.886Z,29.2
2017-07-20T09:47:23.169Z,30.02
2017-07-20T09:48:24.418Z,30.5
2017-07-20T09:49:25.669Z,30.83
2017-07-20T09:50:26.909Z,31.02
2017-07-20T09:51:28.148Z,31.58
2017-07-20T09:52:29.404Z,32.37
2017-07-20T09:53:30.669Z,32.86
2017-07-20T09:54:31.920Z,33.14
2017-07-20T09:55:33.171Z,33.27
2017-07-20T09:56:34.414Z,33.52
2017-07-20T09:57:35.665Z,33.39
2017-07-20T09:58:36.926Z,33.64
2017-07-20T09:59:38.186Z,33.6
2017-07-20T10:00:39.446Z,33.27
2017-07-20T10:01:40.680Z,32.52
2017-07-20T10:02:41.930Z,31.8
2017-07-20T10:03:43.180Z,31.38
2017-07-20T10:04:44.428Z,31.08
2017-07-20T10:05:45.687Z,31.01
2017-07-20T10:06:47.025Z,31.04
2017-07-20T10:07:48.266Z,30.99
2017-07-20T10:08:49.570Z,31.02
2017-07-20T10:09:50.825Z,31.28
2017-07-20T10:10:52.066Z,31.72
2017-07-20T10:11:53.324Z,32.35
2017-07-20T10:12:54.576Z,32.76
2017-07-20T10:13:55.819Z,32.93
2017-07-20T10:14:57.082Z,32.98
2017-07-20T10:15:58.329Z,32.88
2017-07-20T10:16:59.592Z,32.79
2017-07-20T10:18:00.838Z,32.51
2017-07-20T10:19:02.093Z,32.25
2017-07-20T10:20:03.449Z,31.98
2017-07-20T10:21:04.708Z,31.4
2017-07-20T10:22:05.962Z,30.53
2017-07-20T10:23:07.209Z,30.08
2017-07-20T10:24:08.461Z,29.55
2017-07-20T10:25:09.771Z,29.4
2017-07-20T10:26:11.021Z,29.4
2017-07-20T10:27:12.275Z,29.47
2017-07-20T10:28:13.628Z,29.57
2017-07-20T10:29:14.867Z,29.82
2017-07-20T10:30:16.194Z,29.71
2017-07-20T10:31:17.575Z,29.65
2017-07-20T10:32:18.814Z,29.49
2017-07-20T10:33:20.089Z,29.19
2017-07-20T10:34:21.320Z,29
2017-07-20T10:35:22.567Z,28.95
2017-07-20T10:36:23.912Z,29.01
2017-07-20T10:37:25.187Z,29.28
2017-07-20T10:38:26.428Z,29.4
2017-07-20T10:39:27.731Z,29.57
2017-07-20T10:40:28.997Z,30.07
2017-07-20T10:41:30.223Z,30.23
2017-07-20T10:42:31.472Z,30.53
2017-07-20T10:43:32.723Z,30.69
2017-07-20T10:44:33.972Z,30.68
2017-07-20T10:45:35.220Z,30.68
2017-07-20T10:46:36.460Z,30.54
2017-07-20T10:47:37.728Z,30.4
2017-07-20T10:48:38.986Z,29.99
2017-07-20T10:49:40.260Z,29.43
2017-07-20T10:50:41.498Z,29.34
2017-07-20T10:51:42.743Z,29.33
2017-07-20T10:52:43.990Z,29.5
2017-07-20T10:53:45.231Z,29.78
2017-07-20T10:54:46.474Z,30.08
2017-07-20T10:55:47.723Z,30.24
2017-07-20T10:56:49.096Z,30.31
2017-07-20T10:57:50.357Z,30.45
2017-07-20T10:58:51.617Z,30.53
2017-07-20T10:59:52.868Z,30.71
2017-07-20T11:00:54.114Z,30.68
2017-07-20T11:01:55.380Z,30.5
2017-07-20T11:02:56.629Z,30.46
2017-07-20T11:03:57.934Z,30.5
2017-07-20T11:04:59.189Z,30.29
2017-07-20T11:06:00.437Z,30.21
2017-07-20T11:07:01.791Z,30.24
2017-07-20T11:08:03.158Z,30.12
2017-07-20T11:09:04.415Z,30.3
2017-07-20T11:10:05.665Z,30.54
2017-07-20T11:11:06.913Z,30.23
2017-07-20T11:12:08.364Z,30.16
2017-07-20T11:13:09.605Z,29.89
2017-07-20T11:14:10.862Z,29.49
2017-07-20T11:15:12.115Z,28.93
2017-07-20T11:16:13.448Z,28.62
2017-07-20T11:17:14.796Z,28.5
2017-07-20T11:18:16.044Z,28.54
2017-07-20T11:19:17.382Z,28.59
2017-07-20T11:20:18.606Z,28.51
2017-07-20T11:21:19.963Z,28.41
2017-07-20T11:22:21.209Z,28.44
2017-07-20T11:23:22.488Z,28.62
2017-07-20T11:24:23.741Z,28.8
2017-07-20T11:25:24.990Z,28.91
2017-07-20T11:26:26.326Z,28.84
2017-07-20T11:27:27.608Z,28.82
2017-07-20T11:28:28.879Z,28.65
2017-07-20T11:29:30.125Z,28.51
2017-07-20T11:30:31.398Z,28.38
2017-07-20T11:31:32.643Z,28.44
2017-07-20T11:32:34.032Z,28.36
2017-07-20T11:33:35.279Z,28.28
2017-07-20T11:34:36.530Z,28.04
2017-07-20T11:35:37.773Z,27.88
2017-07-20T11:36:39.018Z,27.79
2017-07-20T11:37:40.281Z,27.64
2017-07-20T11:38:41.646Z,27.64
2017-07-20T11:39:42.978Z,27.79
2017-07-20T11:40:44.228Z,27.82
2017-07-20T11:41:45.486Z,27.84
2017-07-20T11:42:46.726Z,27.85
2017-07-20T11:43:48.071Z,27.82
2017-07-20T11:44:49.335Z,27.98
2017-07-20T11:45:50.599Z,27.94
2017-07-20T11:46:51.927Z,28.14
2017-07-20T11:47:53.176Z,28.4
2017-07-20T11:48:54.424Z,28.56
2017-07-20T11:49:55.682Z,28.91
2017-07-20T11:50:56.953Z,29.1
2017-07-20T11:51:58.210Z,29.1
2017-07-20T11:52:59.441Z,29.07
2017-07-20T11:54:00.691Z,29.04
2017-07-20T11:55:01.942Z,29.08
2017-07-20T11:56:03.217Z,28.97
2017-07-20T11:57:04.475Z,29.1
2017-07-20T11:58:05.752Z,29.23
2017-07-20T11:59:07.001Z,29.06
2017-07-20T12:00:08.242Z,29.15
2017-07-20T12:01:09.495Z,29.03
2017-07-20T12:02:10.734Z,29.13
2017-07-20T12:03:11.981Z,29.13
2017-07-20T12:04:13.341Z,29.11
2017-07-20T12:05:14.577Z,29.1
2017-07-20T12:06:15.821Z,28.96
2017-07-20T12:07:17.069Z,28.93
2017-07-20T12:08:18.310Z,28.7
2017-07-20T12:09:19.677Z,28.69
2017-07-20T12:10:20.928Z,28.56
2017-07-20T12:11:22.229Z,28.66
2017-07-20T12:12:23.470Z,28.69
2017-07-20T12:13:24.764Z,28.66
2017-07-20T12:14:26.116Z,28.73
2017-07-20T12:15:27.394Z,28.66
2017-07-20T12:16:28.625Z,28.6
2017-07-20T12:17:29.890Z,28.44
2017-07-20T12:18:31.140Z,28.4
2017-07-20T12:19:32.385Z,28.41
2017-07-20T12:20:33.633Z,28.54
2017-07-20T12:21:34.883Z,28.53
2017-07-20T12:22:36.162Z,28.53
2017-07-20T12:23:37.418Z,28.68
2017-07-20T12:24:38.678Z,28.58
2017-07-20T12:25:39.962Z,28.53
2017-07-20T12:26:41.217Z,28.41
2017-07-20T12:27:42.461Z,28.44
2017-07-20T12:28:43.723Z,28.36
2017-07-20T12:29:45.000Z,28.38
2017-07-20T12:30:46.248Z,28.23
2017-07-20T12:31:47.489Z,28.16
2017-07-20T12:32:48.730Z,28.03
2017-07-20T12:33:49.982Z,27.94
2017-07-20T12:34:51.245Z,27.95
2017-07-20T12:35:52.474Z,27.95
2017-07-20T12:36:53.753Z,27.88
2017-07-20T12:37:54.988Z,27.84
2017-07-20T12:38:56.255Z,27.84
2017-07-20T12:39:57.507Z,27.94
2017-07-20T12:40:58.757Z,27.79
2017-07-20T12:42:00.006Z,27.73
2017-07-20T12:43:01.268Z,27.82
2017-07-20T12:44:02.509Z,27.86
2017-07-20T12:45:03.753Z,27.94
2017-07-20T12:46:05.004Z,27.99
2017-07-20T12:47:06.339Z,27.95
2017-07-20T12:48:07.612Z,27.92
2017-07-20T12:49:08.908Z,27.8
2017-07-20T12:50:10.177Z,27.84
2017-07-20T12:51:11.411Z,27.77
2017-07-20T12:52:12.649Z,27.74
2017-07-20T12:53:13.915Z,27.74
2017-07-20T12:54:15.157Z,27.82
2017-07-20T12:55:16.399Z,27.84
2017-07-20T12:56:17.662Z,27.76
2017-07-20T12:57:18.907Z,27.74
2017-07-20T12:58:20.220Z,27.67
2017-07-20T12:59:21.485Z,27.64
2017-07-20T13:00:22.713Z,27.36
2017-07-20T13:01:23.961Z,27.38
2017-07-20T13:02:25.193Z,27.32
2017-07-20T13:03:26.431Z,27.29
2017-07-20T13:04:27.724Z,27.2
2017-07-20T13:05:28.976Z,27.13
2017-07-20T13:06:30.230Z,27.02
2017-07-20T13:07:31.526Z,27.01
2017-07-20T13:08:32.787Z,26.86
2017-07-20T13:09:34.024Z,26.89
2017-07-20T13:10:35.247Z,26.83
2017-07-20T13:11:36.494Z,26.94
2017-07-20T13:12:38.021Z,27.01